createdAt,value
2023-05-15T00:03:16.266Z,14.73
2023-05-15T00:08:18.237Z,14.64
2023-05-15T00:13:19.724Z,14.54
2023-05-15T00:18:21.291Z,14.42
2023-05-15T00:23:22.809Z,14.34
2023-05-15T00:28:24.717Z,14.29
2023-05-15T00:33:26.268Z,14.30
2023-05-15T00:38:27.802Z,14.26
2023-05-15T00:43:30.203Z,14.18
2023-05-15T00:48:32.946Z,14.17
2023-05-15T00:53:35.185Z,14.15
2023-05-15T00:58:38.626Z,14.12
2023-05-15T01:03:40.451Z,14.08
2023-05-15T01:08:47.721Z,14.09
2023-05-15T01:13:49.359Z,14.07
2023-05-15T01:18:50.909Z,14.07
2023-05-15T01:24:04.593Z,14.03
2023-05-15T01:29:19.182Z,14.05
2023-05-15T01:34:27.304Z,14.03
2023-05-15T01:39:32.242Z,13.96
2023-05-15T01:44:40.228Z,13.91
2023-05-15T01:49:44.899Z,13.90
2023-05-15T01:54:50.097Z,13.83
2023-05-15T01:59:51.980Z,13.80
2023-05-15T02:04:54.375Z,13.76
2023-05-15T02:09:57.081Z,13.74
2023-05-15T02:14:59.680Z,13.73
2023-05-15T02:20:01.261Z,13.72
2023-05-15T02:25:03.086Z,13.71
2023-05-15T02:30:47.009Z,13.71
2023-05-15T02:36:03.670Z,13.71
2023-05-15T02:41:07.517Z,13.74
2023-05-15T02:46:10.586Z,13.75
2023-05-15T02:51:12.194Z,13.80
2023-05-15T02:56:13.784Z,13.80
2023-05-15T03:01:15.955Z,13.76
2023-05-15T03:06:18.605Z,13.77
2023-05-15T03:11:21.348Z,13.78
2023-05-15T03:16:22.938Z,13.82
2023-05-15T03:21:24.568Z,13.83
2023-05-15T03:26:26.071Z,13.85
2023-05-15T03:31:27.678Z,13.86
2023-05-15T03:36:29.238Z,13.88
2023-05-15T03:41:30.734Z,13.85
2023-05-15T03:46:34.590Z,13.84
2023-05-15T03:51:37.363Z,13.86
2023-05-15T03:56:38.940Z,13.85
2023-05-15T04:01:47.525Z,13.88
2023-05-15T04:06:57.147Z,13.90
2023-05-15T04:11:58.611Z,13.93
2023-05-15T04:17:00.105Z,13.97
2023-05-15T04:22:01.838Z,13.97
2023-05-15T04:27:03.731Z,13.97
2023-05-15T04:32:05.414Z,13.96
2023-05-15T04:37:07.172Z,13.95
2023-05-15T04:42:08.640Z,13.92
2023-05-15T04:47:11.466Z,13.90
2023-05-15T04:52:12.946Z,13.86
2023-05-15T04:57:14.429Z,13.79
2023-05-15T05:02:15.915Z,13.76
2023-05-15T05:07:17.419Z,13.78
2023-05-15T05:12:18.985Z,13.79
2023-05-15T05:17:20.508Z,13.80
2023-05-15T05:22:22.064Z,13.77
2023-05-15T05:27:23.550Z,13.79
2023-05-15T05:32:25.180Z,13.85
2023-05-15T05:37:26.797Z,13.92
2023-05-15T05:42:28.378Z,13.96
2023-05-15T05:47:30.006Z,13.96
2023-05-15T05:52:31.502Z,13.98
2023-05-15T05:57:33.073Z,13.99
2023-05-15T06:02:34.760Z,14.04
2023-05-15T06:07:36.472Z,14.06
2023-05-15T06:12:37.941Z,14.10
2023-05-15T06:17:39.622Z,14.13
2023-05-15T06:22:41.147Z,14.16
2023-05-15T06:27:42.966Z,14.21
2023-05-15T06:32:44.537Z,14.27
2023-05-15T06:37:50.163Z,14.31
2023-05-15T06:42:51.634Z,14.36
2023-05-15T06:47:53.291Z,14.42
2023-05-15T06:52:54.796Z,14.47
2023-05-15T06:57:56.328Z,14.54
2023-05-15T07:02:57.847Z,14.60
2023-05-15T07:07:59.360Z,14.64
2023-05-15T07:13:00.842Z,14.71
2023-05-15T07:18:02.475Z,14.80
2023-05-15T07:23:05.128Z,14.91
2023-05-15T07:28:06.619Z,15.03
2023-05-15T07:33:08.118Z,15.17
2023-05-15T07:38:09.750Z,15.27
2023-05-15T07:43:11.229Z,15.35
2023-05-15T07:48:20.230Z,15.49
2023-05-15T07:53:21.791Z,15.61
2023-05-15T07:58:23.296Z,15.76
2023-05-15T08:03:24.946Z,15.95
2023-05-15T08:08:26.661Z,16.03
2023-05-15T08:13:28.814Z,16.11
2023-05-15T08:18:30.453Z,16.21
2023-05-15T08:23:31.925Z,16.37
2023-05-15T08:28:33.574Z,16.51
2023-05-15T08:33:35.074Z,16.57
2023-05-15T08:38:36.632Z,16.61
2023-05-15T08:43:41.360Z,16.67
2023-05-15T08:48:44.008Z,16.67
2023-05-15T08:53:46.031Z,16.68
2023-05-15T08:58:47.786Z,16.79
2023-05-15T09:03:49.335Z,16.86
2023-05-15T09:08:55.371Z,16.98
2023-05-15T09:14:00.875Z,17.16
2023-05-15T09:19:03.113Z,17.27
2023-05-15T09:24:24.892Z,17.36
2023-05-15T09:29:27.618Z,17.50
2023-05-15T09:34:31.556Z,17.61
2023-05-15T09:39:34.036Z,17.78
2023-05-15T09:44:35.676Z,17.92
2023-05-15T09:49:37.531Z,18.02
2023-05-15T09:54:40.625Z,18.11
2023-05-15T09:59:49.503Z,18.21
2023-05-15T10:04:56.352Z,18.33
2023-05-15T10:09:58.601Z,18.46
2023-05-15T10:15:01.538Z,18.56
2023-05-15T10:20:07.040Z,18.73
2023-05-15T10:25:44.140Z,18.89
2023-05-15T10:30:46.749Z,19.03
2023-05-15T10:35:49.095Z,19.17
2023-05-15T10:40:57.667Z,19.22
2023-05-15T10:46:05.285Z,19.37
2023-05-15T10:51:35.984Z,19.56
2023-05-15T10:56:38.853Z,19.74
2023-05-15T11:01:41.153Z,19.89
2023-05-15T11:06:45.418Z,19.95
2023-05-15T11:11:52.890Z,20.04
2023-05-15T11:16:54.554Z,20.01
2023-05-15T11:22:04.027Z,20.06
2023-05-15T11:27:05.585Z,20.10
2023-05-15T11:32:38.860Z,20.18
2023-05-15T11:37:53.813Z,20.32
2023-05-15T11:43:18.332Z,20.51
2023-05-15T11:48:20.203Z,20.71
2023-05-15T11:53:24.095Z,20.85
2023-05-15T11:58:26.382Z,21.01
2023-05-15T12:03:33.998Z,21.06
2023-05-15T12:08:37.661Z,20.93
2023-05-15T12:13:39.297Z,20.69
2023-05-15T12:18:40.915Z,20.40
2023-05-15T12:24:03.527Z,20.40
2023-05-15T12:29:09.388Z,20.50
2023-05-15T12:34:11.271Z,20.53
2023-05-15T12:39:12.895Z,20.21
2023-05-15T12:44:18.163Z,20.04
2023-05-15T12:49:22.972Z,19.97
2023-05-15T12:54:24.505Z,20.00
2023-05-15T12:59:26.168Z,20.11
2023-05-15T13:04:27.911Z,20.21
2023-05-15T13:09:29.581Z,20.30
2023-05-15T13:14:34.602Z,20.31
2023-05-15T13:19:36.140Z,20.31
2023-05-15T13:24:37.690Z,20.43
2023-05-15T13:29:39.162Z,20.55
2023-05-15T13:34:40.731Z,20.73
2023-05-15T13:39:42.272Z,20.92
2023-05-15T13:44:43.793Z,21.01
2023-05-15T13:49:46.231Z,21.11
2023-05-15T13:54:47.772Z,21.31
2023-05-15T13:59:49.691Z,21.52
2023-05-15T14:04:51.311Z,21.71
2023-05-15T14:09:52.787Z,21.94
2023-05-15T14:14:54.469Z,22.11
2023-05-15T14:19:56.194Z,22.20
2023-05-15T14:24:57.784Z,22.08
2023-05-15T14:29:59.315Z,22.17
2023-05-15T14:35:01.487Z,22.25
2023-05-15T14:40:04.800Z,22.26
2023-05-15T14:45:06.849Z,22.20
2023-05-15T14:50:08.453Z,22.15
2023-05-15T14:55:10.677Z,22.06
2023-05-15T15:00:13.321Z,21.99
2023-05-15T15:05:15.016Z,21.89
2023-05-15T15:10:16.575Z,21.84
2023-05-15T15:15:18.913Z,21.79
2023-05-15T15:20:21.510Z,21.74
2023-05-15T15:25:23.625Z,21.76
2023-05-15T15:30:25.300Z,21.76
2023-05-15T15:35:27.072Z,21.80
2023-05-15T15:40:29.779Z,21.99
2023-05-15T15:45:31.498Z,22.23
2023-05-15T15:50:33.115Z,22.50
2023-05-15T15:55:34.726Z,22.78
2023-05-15T16:00:37.056Z,23.04
2023-05-15T16:05:38.549Z,23.18
2023-05-15T16:10:40.765Z,23.26
2023-05-15T16:15:42.230Z,23.28
2023-05-15T16:20:43.844Z,23.17
2023-05-15T16:25:45.388Z,23.03
2023-05-15T16:30:49.723Z,22.84
2023-05-15T16:35:52.533Z,22.68
2023-05-15T16:40:54.054Z,22.47
2023-05-15T16:45:55.627Z,22.26
2023-05-15T16:50:57.139Z,22.03
2023-05-15T16:55:58.676Z,21.77
2023-05-15T17:01:00.211Z,21.52
2023-05-15T17:06:01.870Z,21.25
2023-05-15T17:11:03.935Z,21.11
2023-05-15T17:16:05.916Z,20.93
2023-05-15T17:21:07.549Z,20.76
2023-05-15T17:26:09.087Z,20.55
2023-05-15T17:31:11.151Z,20.37
2023-05-15T17:36:13.681Z,20.20
2023-05-15T17:41:15.276Z,20.07
2023-05-15T17:46:16.961Z,19.95
2023-05-15T17:51:18.867Z,19.82
2023-05-15T17:56:21.419Z,19.73
2023-05-15T18:01:23.061Z,19.65
2023-05-15T18:06:24.628Z,19.60
2023-05-15T18:11:27.087Z,19.52
2023-05-15T18:16:29.720Z,19.35
2023-05-15T18:21:31.529Z,19.23
2023-05-15T18:26:33.077Z,19.12
2023-05-15T18:31:34.723Z,18.98
2023-05-15T18:36:36.319Z,18.90
2023-05-15T18:41:38.102Z,18.81
2023-05-15T18:46:39.664Z,18.76
2023-05-15T18:51:41.486Z,18.71
2023-05-15T18:56:43.354Z,18.64
2023-05-15T19:01:46.324Z,18.56
2023-05-15T19:06:50.799Z,18.48
2023-05-15T19:11:52.516Z,18.42
2023-05-15T19:16:54.361Z,18.32
2023-05-15T19:21:55.950Z,18.24
2023-05-15T19:26:57.463Z,18.18
2023-05-15T19:31:59.220Z,18.16
2023-05-15T19:37:01.175Z,18.13
2023-05-15T19:42:02.748Z,18.10
2023-05-15T19:47:04.319Z,18.05
2023-05-15T19:52:06.121Z,18.04
2023-05-15T19:57:07.684Z,17.96
2023-05-15T20:02:11.092Z,17.87
2023-05-15T20:07:12.941Z,17.82
2023-05-15T20:12:14.529Z,17.76
2023-05-15T20:17:16.918Z,17.69
2023-05-15T20:22:18.662Z,17.67
2023-05-15T20:27:20.279Z,17.67
2023-05-15T20:32:21.902Z,17.65
2023-05-15T20:37:31.020Z,17.63
2023-05-15T20:42:32.623Z,17.56
2023-05-15T20:47:34.325Z,17.50
2023-05-15T20:52:35.872Z,17.45
2023-05-15T20:57:37.352Z,17.40
2023-05-15T21:02:39.666Z,17.36
2023-05-15T21:07:41.314Z,17.33
2023-05-15T21:12:42.865Z,17.27
2023-05-15T21:17:44.430Z,17.21
2023-05-15T21:22:45.966Z,17.15
2023-05-15T21:27:47.525Z,17.06
2023-05-15T21:32:49.068Z,17.00
2023-05-15T21:37:50.813Z,16.94
2023-05-15T21:42:52.648Z,16.91
2023-05-15T21:47:54.478Z,16.88
2023-05-15T21:52:56.039Z,16.81
2023-05-15T21:57:57.574Z,16.73
2023-05-15T22:02:59.242Z,16.63
2023-05-15T22:08:01.128Z,16.55
2023-05-15T22:13:03.429Z,16.46
2023-05-15T22:18:08.181Z,16.42
2023-05-15T22:23:10.541Z,16.43
2023-05-15T22:28:12.151Z,16.43
2023-05-15T22:33:13.863Z,16.42
2023-05-15T22:38:15.768Z,16.42
2023-05-15T22:43:17.354Z,16.36
2023-05-15T22:48:19.034Z,16.32
2023-05-15T22:53:20.598Z,16.29
2023-05-15T22:58:22.077Z,16.22
2023-05-15T23:03:23.730Z,16.17
2023-05-15T23:08:25.374Z,16.12
2023-05-15T23:13:27.028Z,16.07
2023-05-15T23:18:28.551Z,16.02
2023-05-15T23:23:30.113Z,15.97
2023-05-15T23:28:31.690Z,15.92
2023-05-15T23:33:34.151Z,15.88
2023-05-15T23:38:35.673Z,15.86
2023-05-15T23:43:37.186Z,15.81
2023-05-15T23:48:38.924Z,15.78
2023-05-15T23:53:41.054Z,15.75
2023-05-15T23:58:42.603Z,15.69
